Time;durP1;ratioP1;P1;durP2;ratioP2;P2;SDS_P1;SDS_P2;PMS_P1;PMS_P2;Temp;Humidity;BMP_temperature;BMP_pressure;BME280_temperature;BME280_humidity;BME280_pressure;Samples;Min_cycle;Max_cycle;Signal;HPM_P1;HPM_P2
2022/09/08 00:02:16;;;;;;;0.10;0.10;;;;;;;13.64;100.00;101133.81;10409713;28;20025;-74
2022/09/08 00:07:18;;;;;;;0.00;0.00;;;;;;;13.57;100.00;101131.81;10392510;28;20072;-74
2022/09/08 00:12:18;;;;;;;0.00;0.00;;;;;;;13.52;100.00;101138.69;10409918;28;20022;-74
2022/09/08 00:17:19;;;;;;;0.00;0.00;;;;;;;13.38;100.00;101137.56;10390264;28;20484;-74
2022/09/08 00:22:19;;;;;;;0.10;0.10;;;;;;;13.29;100.00;101147.44;10407596;28;20021;-74
2022/09/08 00:27:19;;;;;;;0.10;0.10;;;;;;;13.24;100.00;101141.72;10409490;28;20104;-74
2022/09/08 00:32:20;;;;;;;0.10;0.10;;;;;;;13.26;100.00;101134.38;10408753;28;20092;-74
2022/09/08 00:37:21;;;;;;;0.10;0.10;;;;;;;13.35;100.00;101125.34;10409807;28;20021;-74
2022/09/08 00:42:21;;;;;;;0.10;0.10;;;;;;;13.44;100.00;101123.50;10408119;28;20029;-74
2022/09/08 00:47:23;;;;;;;0.10;0.10;;;;;;;13.36;100.00;101107.47;10389659;28;20040;-74
2022/09/08 00:52:28;;;;;;;0.10;0.10;;;;;;;13.20;100.00;101104.78;10390287;28;20018;-74
2022/09/08 00:57:28;;;;;;;0.00;0.00;;;;;;;13.18;100.00;101109.44;10390688;28;20025;-74
2022/09/08 01:02:29;;;;;;;0.10;0.10;;;;;;;13.24;100.00;101103.44;10407783;28;20088;-74
2022/09/08 01:13:14;;;;;;;0.10;0.10;;;;;;;13.27;100.00;101095.09;10367190;28;20022;-74
2022/09/08 01:18:15;;;;;;;0.00;0.00;;;;;;;13.24;100.00;101071.34;10366543;28;20025;-74
2022/09/08 01:23:27;;;;;;;0.10;0.10;;;;;;;13.13;100.00;101068.00;10372577;28;20461;-74
2022/09/08 01:28:50;;;;;;;0.10;0.10;;;;;;;13.01;100.00;101076.56;10372160;28;20435;-74
2022/09/08 01:33:51;;;;;;;0.10;0.10;;;;;;;12.87;100.00;101080.75;10407341;28;20063;-74
2022/09/08 01:38:51;;;;;;;0.10;0.10;;;;;;;12.83;100.00;101074.06;10407598;28;20026;-74
2022/09/08 01:43:51;;;;;;;0.10;0.10;;;;;;;12.85;100.00;101077.38;10407225;28;20029;-74
2022/09/08 01:48:52;;;;;;;0.00;0.00;;;;;;;12.78;100.00;101058.53;10367570;28;20460;-74
2022/09/08 01:53:52;;;;;;;0.10;0.10;;;;;;;12.78;100.00;101052.34;10406987;28;20267;-74
2022/09/08 01:58:53;;;;;;;0.10;0.10;;;;;;;12.88;100.00;101061.00;10377319;28;20100;-74
2022/09/08 02:03:53;;;;;;;0.10;0.10;;;;;;;13.08;100.00;101069.53;10367968;28;20022;-74
2022/09/08 02:08:55;;;;;;;0.00;0.00;;;;;;;13.13;100.00;101065.34;10373936;28;20046;-74
2022/09/08 02:13:55;;;;;;;0.10;0.10;;;;;;;12.96;100.00;101062.84;10372992;28;20021;-75
2022/09/08 02:18:56;;;;;;;0.10;0.10;;;;;;;12.69;100.00;101062.22;10395890;28;20051;-74
2022/09/08 02:23:57;;;;;;;0.10;0.10;;;;;;;12.52;100.00;101045.31;10413364;28;20723;-74
2022/09/08 02:28:58;;;;;;;0.00;0.00;;;;;;;12.42;100.00;101044.63;10408155;28;20026;-74
2022/09/08 02:33:58;;;;;;;0.10;0.10;;;;;;;12.36;100.00;101038.16;10373112;28;20022;-74
2022/09/08 02:38:58;;;;;;;0.10;0.10;;;;;;;12.49;100.00;101029.63;10372975;28;20025;-74
2022/09/08 02:43:59;;;;;;;0.00;0.00;;;;;;;12.71;100.00;101017.41;10371744;28;20083;-74
2022/09/08 02:48:59;;;;;;;0.00;0.00;;;;;;;12.69;100.00;101020.28;10395708;28;20114;-74
2022/09/08 02:53:59;;;;;;;0.10;0.10;;;;;;;12.77;100.00;101021.25;10390106;28;20017;-74
2022/09/08 02:59:00;;;;;;;0.05;0.05;;;;;;;12.77;100.00;101018.59;10372204;28;20030;-74
2022/09/08 03:04:01;;;;;;;0.10;0.10;;;;;;;12.75;100.00;101015.25;10374272;28;20022;-74
2022/09/08 03:09:01;;;;;;;0.10;0.10;;;;;;;12.74;100.00;101018.91;10371680;28;20108;-74
2022/09/08 03:14:03;;;;;;;0.10;0.10;;;;;;;12.73;100.00;101035.97;10369341;28;20018;-74
2022/09/08 03:19:04;;;;;;;0.10;0.10;;;;;;;12.82;100.00;101026.94;10390403;28;20022;-74
2022/09/08 03:24:05;;;;;;;0.10;0.10;;;;;;;12.89;100.00;101028.78;10411259;28;20352;-74
2022/09/08 03:29:06;;;;;;;0.00;0.00;;;;;;;12.81;100.00;101020.75;10411776;28;20554;-74
2022/09/08 03:34:06;;;;;;;0.10;0.10;;;;;;;12.72;100.00;101018.28;10405280;28;20032;-74
2022/09/08 03:39:07;;;;;;;0.10;0.10;;;;;;;12.68;100.00;101010.59;10384906;28;20038;-74
2022/09/08 03:44:08;;;;;;;0.00;0.00;;;;;;;12.75;100.00;101009.91;10367953;28;20271;-74
2022/09/08 03:49:08;;;;;;;0.17;0.17;;;;;;;12.84;100.00;101011.56;10395298;28;20037;-74
2022/09/08 03:59:29;;;;;;;0.10;0.10;;;;;;;12.98;100.00;100996.69;10413892;23;20396;-74
2022/09/08 04:04:30;;;;;;;0.10;0.10;;;;;;;13.04;100.00;100996.81;10367003;28;20041;-74
2022/09/08 04:09:31;;;;;;;0.10;0.10;;;;;;;13.05;100.00;100984.28;10368990;28;20032;-74
2022/09/08 04:14:32;;;;;;;0.10;0.10;;;;;;;13.03;100.00;100989.81;10367033;28;20029;-75
2022/09/08 04:19:33;;;;;;;0.10;0.10;;;;;;;13.03;100.00;100996.97;10363877;28;20018;-75
2022/09/08 04:24:33;;;;;;;0.10;0.10;;;;;;;13.01;100.00;100975.78;10368055;28;20013;-73
2022/09/08 04:29:34;;;;;;;0.10;0.10;;;;;;;12.99;100.00;100980.47;10367975;28;20057;-73
2022/09/08 04:34:35;;;;;;;0.10;0.10;;;;;;;12.97;100.00;100971.75;10367943;28;20024;-74
2022/09/08 04:39:36;;;;;;;0.00;0.00;;;;;;;12.95;100.00;100968.44;10367927;28;20128;-74
2022/09/08 04:44:36;;;;;;;0.00;0.00;;;;;;;12.94;100.00;100969.44;10366590;28;20152;-74
2022/09/08 04:49:36;;;;;;;0.10;0.10;;;;;;;12.93;100.00;100958.94;10364897;28;20034;-75
2022/09/08 04:54:37;;;;;;;0.10;0.10;;;;;;;12.93;100.00;100943.72;10367448;28;20036;-74
2022/09/08 04:59:37;;;;;;;0.00;0.00;;;;;;;12.94;100.00;100950.72;10341829;28;20026;-75
2022/09/08 05:04:37;;;;;;;0.10;0.10;;;;;;;12.98;100.00;100948.56;10362050;28;20022;-75
2022/09/08 05:09:38;;;;;;;0.00;0.00;;;;;;;13.07;100.00;100942.19;10360285;28;20285;-75
2022/09/08 05:14:38;;;;;;;0.10;0.10;;;;;;;13.11;100.00;100927.44;10361628;28;20029;-75
2022/09/08 05:19:38;;;;;;;0.10;0.10;;;;;;;13.25;100.00;100924.06;10366840;28;20113;-75
2022/09/08 05:24:38;;;;;;;0.03;0.03;;;;;;;13.45;100.00;100935.19;10367131;28;20037;-75
2022/09/08 05:29:39;;;;;;;0.10;0.10;;;;;;;13.58;100.00;100924.75;10363306;28;20033;-75
2022/09/08 05:34:40;;;;;;;0.00;0.00;;;;;;;13.66;100.00;100926.53;10365354;28;20050;-75
2022/09/08 05:39:40;;;;;;;0.10;0.10;;;;;;;13.75;100.00;100913.91;10352274;28;20041;-75
2022/09/08 05:44:41;;;;;;;0.10;0.10;;;;;;;13.81;100.00;100918.56;10368104;28;20265;-75
2022/09/08 05:49:41;;;;;;;0.10;0.10;;;;;;;13.84;100.00;100912.84;10355621;28;20041;-75
2022/09/08 05:54:41;;;;;;;0.00;0.00;;;;;;;13.83;100.00;100903.16;10364777;28;20026;-75
2022/09/08 05:59:42;;;;;;;0.10;0.10;;;;;;;13.82;100.00;100906.84;10365633;28;20022;-75
2022/09/08 06:04:42;;;;;;;0.10;0.10;;;;;;;13.85;100.00;100903.00;10356255;28;20117;-75
2022/09/08 06:09:43;;;;;;;0.03;0.03;;;;;;;13.87;100.00;100903.63;10374371;28;20030;-75
2022/09/08 06:14:43;;;;;;;0.10;0.10;;;;;;;13.93;100.00;100908.25;10373185;28;20064;-75
2022/09/08 06:19:43;;;;;;;0.10;0.10;;;;;;;13.98;100.00;100908.56;10373686;28;20030;-75
2022/09/08 06:24:43;;;;;;;0.00;0.00;;;;;;;14.09;100.00;100918.84;10366390;28;20022;-75
2022/09/08 06:30:08;;;;;;;0.10;0.10;;;;;;;14.22;100.00;100916.41;10363546;28;20477;-75
2022/09/08 06:35:28;;;;;;;0.10;0.10;;;;;;;14.33;100.00;100895.53;10350112;28;20489;-75
2022/09/08 06:40:42;;;;;;;0.10;0.10;;;;;;;14.40;100.00;100881.25;10372268;28;20048;-75
2022/09/08 06:45:47;;;;;;;0.00;0.00;;;;;;;14.44;100.00;100876.34;10372003;28;20022;-75
2022/09/08 06:51:12;;;;;;;0.10;0.10;;;;;;;14.48;100.00;100881.13;10371519;28;20037;-74
2022/09/08 06:56:32;;;;;;;0.00;0.00;;;;;;;14.54;100.00;100894.84;10371906;28;20034;-75
2022/09/08 07:01:39;;;;;;;0.10;0.10;;;;;;;14.58;100.00;100902.38;10365799;28;20029;-74
2022/09/08 07:06:55;;;;;;;0.05;0.05;;;;;;;14.65;100.00;100897.09;10369837;28;20554;-74
2022/09/08 07:12:23;;;;;;;0.10;0.10;;;;;;;14.73;100.00;100897.00;10352782;28;20056;-74
2022/09/08 07:17:39;;;;;;;0.10;0.10;;;;;;;14.80;100.00;100903.28;10371207;28;20484;-74
2022/09/08 07:22:51;;;;;;;0.10;0.10;;;;;;;14.91;100.00;100904.69;10369129;28;20014;-74
2022/09/08 07:28:01;;;;;;;0.10;0.10;;;;;;;14.98;100.00;100902.06;10370689;28;20101;-74
2022/09/08 07:33:10;;;;;;;0.10;0.10;;;;;;;15.02;100.00;100901.53;10363042;28;20389;-74
2022/09/08 07:38:19;;;;;;;0.10;0.10;;;;;;;15.07;100.00;100901.81;10367109;28;20021;-74
2022/09/08 07:43:19;;;;;;;0.10;0.10;;;;;;;15.11;100.00;100895.03;10369397;28;20366;-74
2022/09/08 07:48:44;;;;;;;0.10;0.10;;;;;;;15.16;100.00;100887.28;10352412;28;20097;-72
2022/09/08 07:54:00;;;;;;;0.10;0.10;;;;;;;15.23;100.00;100865.03;10369306;28;20029;-72
2022/09/08 07:59:16;;;;;;;0.10;0.10;;;;;;;15.30;100.00;100872.16;10351693;28;20033;-72
2022/09/08 08:04:25;;;;;;;0.10;0.10;;;;;;;15.38;100.00;100873.88;10362309;28;20032;-72
2022/09/08 08:09:40;;;;;;;0.10;0.10;;;;;;;15.45;100.00;100885.53;10369545;28;20026;-72
2022/09/08 08:14:58;;;;;;;0.10;0.10;;;;;;;15.49;100.00;100875.25;10368949;28;20104;-72
2022/09/08 08:20:20;;;;;;;0.10;0.10;;;;;;;15.52;100.00;100853.38;10368867;28;20018;-72
2022/09/08 08:25:25;;;;;;;0.10;0.10;;;;;;;15.54;100.00;100857.56;10367324;28;20029;-72
2022/09/08 08:30:27;;;;;;;0.10;0.10;;;;;;;15.58;100.00;100852.63;10367764;28;20021;-72
2022/09/08 08:36:15;;;;;;;0.10;0.10;;;;;;;15.60;100.00;100846.03;10364123;28;20029;-73
2022/09/08 08:41:40;;;;;;;0.10;0.10;;;;;;;15.63;100.00;100850.19;10141232;29;20119;-72
2022/09/08 08:47:08;;;;;;;0.10;0.10;;;;;;;15.69;100.00;100854.84;10320452;28;20104;-72
2022/09/08 08:52:17;;;;;;;0.10;0.10;;;;;;;15.73;100.00;100855.28;10367077;28;20025;-73
2022/09/08 08:57:23;;;;;;;0.10;0.10;;;;;;;15.83;100.00;100855.78;10368018;28;20105;-72
2022/09/08 09:02:59;;;;;;;0.10;0.10;;;;;;;15.97;100.00;100851.34;10365745;28;20073;-72
2022/09/08 09:08:21;;;;;;;0.10;0.10;;;;;;;16.15;100.00;100861.66;10366338;28;20021;-72
2022/09/08 09:13:40;;;;;;;0.10;0.10;;;;;;;16.17;100.00;100871.16;10368218;28;20489;-72
2022/09/08 09:18:40;;;;;;;0.03;0.03;;;;;;;16.18;100.00;100867.44;10375481;28;20438;-72
2022/09/08 09:23:43;;;;;;;0.10;0.10;;;;;;;16.24;100.00;100892.72;10357439;28;20056;-72
2022/09/08 09:28:54;;;;;;;0.10;0.10;;;;;;;16.26;100.00;100864.63;10375569;28;20029;-72
2022/09/08 09:34:28;;;;;;;0.10;0.10;;;;;;;16.38;100.00;100861.41;10352160;28;20030;-73
2022/09/08 09:39:38;;;;;;;0.00;0.00;;;;;;;16.45;100.00;100862.25;10374978;28;20061;-73
2022/09/08 09:44:58;;;;;;;0.10;0.10;;;;;;;16.55;100.00;100856.53;10374658;28;20450;-72
2022/09/08 09:50:13;;;;;;;0.08;0.08;;;;;;;16.60;100.00;100849.53;10356826;28;20373;-72
2022/09/08 09:55:33;;;;;;;0.10;0.10;;;;;;;16.70;100.00;100836.56;10374286;28;20100;-72
2022/09/08 10:01:12;;;;;;;0.10;0.10;;;;;;;16.80;100.00;100833.53;10378109;22;20046;-73
2022/09/08 10:06:33;;;;;;;0.10;0.10;;;;;;;16.83;100.00;100818.84;10368989;28;20065;-73
2022/09/08 10:12:04;;;;;;;0.13;0.13;;;;;;;16.88;100.00;100808.31;10373207;28;20029;-73
2022/09/08 10:17:26;;;;;;;0.00;0.00;;;;;;;16.91;100.00;100786.41;10373055;28;20038;-73
2022/09/08 10:22:29;;;;;;;0.10;0.10;;;;;;;16.98;100.00;100773.78;10372764;28;20026;-73
2022/09/08 10:27:44;;;;;;;0.10;0.10;;;;;;;17.12;100.00;100769.28;10372274;28;20028;-73
2022/09/08 10:33:16;;;;;;;0.10;0.10;;;;;;;17.12;100.00;100762.03;10367878;28;20037;-74
2022/09/08 10:39:00;;;;;;;0.10;0.10;;;;;;;17.15;100.00;100769.69;10370783;28;20025;-73
2022/09/08 10:44:07;;;;;;;0.10;0.10;;;;;;;17.13;100.00;100754.78;10301223;28;20338;-73
2022/09/08 10:49:52;;;;;;;0.10;0.10;;;;;;;16.94;100.00;100794.06;10372082;28;20029;-73
2022/09/08 10:55:28;;;;;;;0.10;0.10;;;;;;;16.83;100.00;100803.53;10366420;28;20041;-73
2022/09/08 11:00:49;;;;;;;0.10;0.10;;;;;;;16.77;100.00;100808.91;10370515;28;20029;-73
2022/09/08 11:06:07;;;;;;;0.10;0.10;;;;;;;16.60;100.00;100829.88;10365981;28;20112;-73
2022/09/08 11:11:16;;;;;;;0.10;0.10;;;;;;;16.36;100.00;100840.06;10370910;28;20045;-73
2022/09/08 11:16:22;;;;;;;0.17;0.17;;;;;;;16.07;100.00;100847.31;10370923;28;20043;-74
2022/09/08 11:21:36;;;;;;;0.10;0.10;;;;;;;15.90;100.00;100831.69;10370368;28;20026;-76
2022/09/08 11:27:01;;;;;;;0.00;0.00;;;;;;;15.59;100.00;100838.16;10370494;28;20045;-76
2022/09/08 11:32:13;;;;;;;0.10;0.10;;;;;;;15.28;100.00;100854.59;10364952;28;20481;-77
2022/09/08 11:37:38;;;;;;;0.10;0.10;;;;;;;15.05;100.00;100846.69;10348767;28;20473;-77
2022/09/08 11:43:02;;;;;;;0.10;0.10;;;;;;;14.85;100.00;100846.44;10376567;28;20021;-77
2022/09/08 11:48:43;;;;;;;0.10;0.10;;;;;;;14.71;100.00;100840.06;10359352;28;20095;-77
2022/09/08 11:54:06;;;;;;;0.10;0.10;;;;;;;14.71;100.00;100840.88;10370820;28;20018;-77
2022/09/08 11:59:31;;;;;;;0.10;0.10;;;;;;;14.66;100.00;100843.31;10367729;28;20045;-77
2022/09/08 12:05:11;;;;;;;0.10;0.10;;;;;;;14.58;100.00;100842.56;10365567;28;20021;-76
2022/09/08 12:10:35;;;;;;;0.10;0.10;;;;;;;14.58;100.00;100835.34;10371489;28;20026;-76
2022/09/08 12:15:44;;;;;;;0.10;0.10;;;;;;;14.60;100.00;100833.31;10350644;28;20022;-76
2022/09/08 12:21:07;;;;;;;0.10;0.10;;;;;;;14.65;100.00;100833.59;10368640;28;20030;-76
2022/09/08 12:26:16;;;;;;;0.10;0.10;;;;;;;14.64;100.00;100839.97;10367429;28;20460;-76
2022/09/08 12:31:28;;;;;;;0.10;0.10;;;;;;;14.57;100.00;100838.19;10362606;28;20078;-75
2022/09/08 12:36:32;;;;;;;0.10;0.10;;;;;;;14.60;100.00;100829.78;10355706;28;20041;-75
2022/09/08 12:41:59;;;;;;;0.10;0.10;;;;;;;14.67;100.00;100823.50;10362864;28;20022;-76
2022/09/08 12:47:36;;;;;;;0.10;0.10;;;;;;;14.71;100.00;100818.59;10367785;28;20366;-75
2022/09/08 12:52:52;;;;;;;0.10;0.10;;;;;;;14.67;100.00;100820.84;10366744;28;20029;-75
2022/09/08 12:57:56;;;;;;;0.10;0.10;;;;;;;14.53;100.00;100820.84;10367102;28;20106;-75
2022/09/08 13:03:25;;;;;;;0.10;0.10;;;;;;;14.44;100.00;100820.06;10356694;28;20018;-75
2022/09/08 13:08:50;;;;;;;0.10;0.10;;;;;;;14.30;100.00;100805.63;10359343;28;20555;-73
2022/09/08 13:13:55;;;;;;;0.10;0.10;;;;;;;14.24;100.00;100801.84;10365956;28;20026;-74
2022/09/08 13:19:14;;;;;;;0.10;0.10;;;;;;;14.21;100.00;100799.53;10369479;28;20362;-74
2022/09/08 13:24:21;;;;;;;0.10;0.10;;;;;;;14.23;100.00;100804.72;10366358;28;20338;-73
2022/09/08 13:29:42;;;;;;;0.10;0.10;;;;;;;14.18;100.00;100799.91;10366437;28;20037;-74
2022/09/08 13:34:52;;;;;;;0.10;0.10;;;;;;;14.12;100.00;100803.31;10360540;28;20079;-75
2022/09/08 13:40:19;;;;;;;0.10;0.10;;;;;;;14.08;100.00;100807.38;10366514;28;20428;-75
2022/09/08 13:45:48;;;;;;;0.10;0.10;;;;;;;14.03;100.00;100799.88;10366263;28;20437;-75
2022/09/08 13:50:48;;;;;;;0.10;0.10;;;;;;;14.01;100.00;100812.63;10344062;28;20049;-76
2022/09/08 13:56:01;;;;;;;0.10;0.10;;;;;;;14.02;100.00;100805.41;10365964;28;20531;-75
2022/09/08 14:01:08;;;;;;;0.10;0.10;;;;;;;14.02;100.00;100814.31;10364975;28;20052;-75
2022/09/08 14:06:11;;;;;;;0.10;0.10;;;;;;;14.01;100.00;100827.88;10371547;28;20030;-75
2022/09/08 14:11:23;;;;;;;0.10;0.10;;;;;;;13.99;100.00;100825.38;10338531;28;20030;-76
2022/09/08 14:16:26;;;;;;;0.10;0.10;;;;;;;14.09;100.00;100816.25;10373219;28;20145;-75
2022/09/08 14:21:37;;;;;;;0.00;0.00;;;;;;;14.19;100.00;100819.47;10372677;28;20064;-75
2022/09/08 14:26:50;;;;;;;0.10;0.10;;;;;;;14.26;100.00;100815.91;10368405;28;20419;-76
2022/09/08 14:31:58;;;;;;;0.00;0.00;;;;;;;14.25;100.00;100808.88;10369687;28;20037;-75
2022/09/08 14:37:08;;;;;;;0.10;0.10;;;;;;;14.21;100.00;100796.84;10372537;28;20018;-75
2022/09/08 14:42:43;;;;;;;0.10;0.10;;;;;;;14.20;100.00;100805.91;10363609;28;20041;-75
2022/09/08 14:48:09;;;;;;;0.10;0.10;;;;;;;14.24;100.00;100792.97;10372364;28;20103;-75
2022/09/08 14:53:29;;;;;;;0.10;0.10;;;;;;;14.20;100.00;100786.34;10366359;28;20032;-75
2022/09/08 14:59:03;;;;;;;0.10;0.10;;;;;;;14.27;100.00;100784.56;10369714;28;20409;-75
2022/09/08 15:04:22;;;;;;;0.10;0.10;;;;;;;14.31;100.00;100790.38;10369970;28;20104;-75
2022/09/08 15:09:33;;;;;;;0.00;0.00;;;;;;;14.34;100.00;100793.56;10366384;28;20124;-75
2022/09/08 15:14:55;;;;;;;0.10;0.10;;;;;;;14.45;100.00;100795.75;10366959;28;20370;-75
2022/09/08 15:20:09;;;;;;;0.10;0.10;;;;;;;14.48;100.00;100803.41;10370362;28;20022;-75
2022/09/08 15:25:35;;;;;;;0.10;0.10;;;;;;;14.53;100.00;100796.72;10365901;28;20013;-75
2022/09/08 15:30:36;;;;;;;0.00;0.00;;;;;;;14.61;100.00;100791.25;10370330;28;20102;-75
2022/09/08 15:36:02;;;;;;;0.00;0.00;;;;;;;14.65;100.00;100788.00;10369684;28;20029;-75
2022/09/08 15:41:12;;;;;;;0.00;0.00;;;;;;;14.61;100.00;100781.38;10346780;28;20476;-75
2022/09/08 15:46:23;;;;;;;0.10;0.10;;;;;;;14.58;100.00;100786.28;10365447;28;20026;-75
2022/09/08 15:51:42;;;;;;;0.00;0.00;;;;;;;14.52;100.00;100777.13;10369664;28;20448;-75
2022/09/08 15:57:07;;;;;;;0.10;0.10;;;;;;;14.50;100.00;100777.28;10369374;28;20026;-75
2022/09/08 16:02:25;;;;;;;0.10;0.10;;;;;;;14.46;100.00;100773.31;10375640;23;20042;-75
2022/09/08 16:07:51;;;;;;;0.10;0.10;;;;;;;14.42;100.00;100766.63;10369127;28;20151;-74
2022/09/08 16:13:15;;;;;;;0.10;0.10;;;;;;;14.41;100.00;100766.84;10360355;28;20034;-73
2022/09/08 16:18:28;;;;;;;;;;;;;;;14.38;100.00;100759.19;10369380;28;20026;-74
2022/09/08 16:23:38;;;;;;;0.10;0.10;;;;;;;14.36;100.00;100772.75;10345495;28;19924;-73
2022/09/08 16:29:22;;;;;;;0.10;0.10;;;;;;;14.35;100.00;100759.56;10351010;28;20033;-74
2022/09/08 16:34:28;;;;;;;0.10;0.10;;;;;;;14.38;100.00;100753.81;10346957;28;20393;-73
2022/09/08 16:39:28;;;;;;;0.10;0.10;;;;;;;14.40;100.00;100754.47;10361720;28;20032;-74
2022/09/08 16:44:50;;;;;;;0.10;0.10;;;;;;;14.38;100.00;100757.31;10346045;28;20377;-73
2022/09/08 16:50:14;;;;;;;0.10;0.10;;;;;;;14.43;100.00;100760.28;10366175;28;20029;-73
2022/09/08 16:55:16;;;;;;;0.10;0.10;;;;;;;14.43;100.00;100762.13;10366386;28;20029;-73
2022/09/08 17:00:23;;;;;;;0.10;0.10;;;;;;;14.40;100.00;100749.94;10366508;28;20496;-73
2022/09/08 17:05:32;;;;;;;0.10;0.10;;;;;;;14.39;100.00;100755.47;10349333;28;20025;-73
2022/09/08 17:11:15;;;;;;;0.10;0.10;;;;;;;14.34;100.00;100752.50;10362727;28;20029;-73
2022/09/08 17:16:31;;;;;;;;;;;;;;;14.32;100.00;100760.75;10312450;28;20100;-73
2022/09/08 17:21:35;;;;;;;0.10;0.10;;;;;;;14.35;100.00;100756.88;10366981;28;19910;-72
2022/09/08 17:26:54;;;;;;;0.10;0.10;;;;;;;14.35;100.00;100755.03;10367363;28;20022;-73
2022/09/08 17:32:02;;;;;;;0.10;0.10;;;;;;;14.35;100.00;100754.19;10367805;28;20029;-72
2022/09/08 17:37:11;;;;;;;0.10;0.10;;;;;;;14.31;100.00;100758.25;10373469;28;20069;-72
2022/09/08 17:42:11;;;;;;;0.10;0.10;;;;;;;14.29;100.00;100757.63;10375507;28;20096;-72
2022/09/08 17:47:24;;;;;;;0.10;0.10;;;;;;;14.26;100.00;100750.78;10375729;28;20551;-72
2022/09/08 17:52:31;;;;;;;0.00;0.00;;;;;;;14.25;100.00;100754.44;10374983;28;20037;-72
2022/09/08 17:57:39;;;;;;;0.10;0.10;;;;;;;14.22;100.00;100749.47;10374659;28;20061;-72
2022/09/08 18:02:46;;;;;;;0.10;0.10;;;;;;;14.18;100.00;100748.19;10374027;28;20018;-72
2022/09/08 18:08:03;;;;;;;0.10;0.10;;;;;;;14.11;100.00;100766.00;10374596;28;20025;-72
2022/09/08 18:13:34;;;;;;;0.10;0.10;;;;;;;14.04;100.00;100765.91;10368106;28;20026;-72
2022/09/08 18:18:39;;;;;;;0.10;0.10;;;;;;;14.04;100.00;100771.25;10366730;28;20116;-72
2022/09/08 18:23:40;;;;;;;0.10;0.10;;;;;;;14.04;100.00;100777.44;10373522;28;20384;-72
2022/09/08 18:29:16;;;;;;;0.10;0.10;;;;;;;14.07;100.00;100783.44;10373476;28;20013;-72
2022/09/08 18:34:25;;;;;;;0.10;0.10;;;;;;;14.08;100.00;100785.09;10372617;28;20043;-72
2022/09/08 18:39:35;;;;;;;0.10;0.10;;;;;;;14.11;100.00;100798.13;10370765;28;20030;-72
2022/09/08 18:44:43;;;;;;;0.10;0.10;;;;;;;14.13;100.00;100798.78;10368564;28;20033;-72
2022/09/08 18:50:06;;;;;;;0.10;0.10;;;;;;;14.14;100.00;100809.34;10372826;28;20426;-72
2022/09/08 18:55:29;;;;;;;0.08;0.08;;;;;;;14.17;100.00;100800.94;10372213;28;20030;-72
2022/09/08 19:00:32;;;;;;;;;;;;;;;14.19;100.00;100790.84;10354467;28;20022;-72
2022/09/08 19:05:36;;;;;;;0.10;0.10;;;;;;;14.19;100.00;100792.69;10354769;28;19909;-72
2022/09/08 19:10:42;;;;;;;0.10;0.10;;;;;;;14.19;100.00;100787.34;10367453;28;20433;-72
2022/09/08 19:16:04;;;;;;;0.08;0.08;;;;;;;14.17;100.00;100779.50;10369408;28;20116;-72
2022/09/08 19:21:06;;;;;;;0.20;0.20;;;;;;;14.19;100.00;100787.34;10370567;28;20028;-73
2022/09/08 19:26:37;;;;;;;0.10;0.10;;;;;;;14.15;100.00;100776.16;10370316;28;20026;-72
2022/09/08 19:31:42;;;;;;;0.10;0.10;;;;;;;14.14;100.00;100781.72;10370010;28;20101;-72
2022/09/08 19:36:45;;;;;;;0.10;0.10;;;;;;;14.12;100.00;100783.75;10370565;28;20034;-72
2022/09/08 19:41:45;;;;;;;0.10;0.10;;;;;;;14.09;100.00;100790.28;10363597;28;20053;-72
2022/09/08 19:47:44;;;;;;;0.10;0.10;;;;;;;14.07;100.00;100772.75;10365003;28;20091;-72
2022/09/08 19:52:45;;;;;;;0.10;0.10;;;;;;;14.03;100.00;100778.47;10198303;29;20039;-72
2022/09/08 19:57:57;;;;;;;0.10;0.10;;;;;;;14.00;100.00;100778.84;10329684;28;20133;-72
2022/09/08 20:03:29;;;;;;;0.00;0.00;;;;;;;13.94;100.00;100776.88;10368987;28;20053;-73
2022/09/08 20:08:32;;;;;;;0.10;0.10;;;;;;;13.89;100.00;100776.59;10369169;28;20121;-72
2022/09/08 20:13:36;;;;;;;0.10;0.10;;;;;;;13.85;100.00;100774.47;10362824;28;20492;-72
2022/09/08 20:19:01;;;;;;;0.10;0.10;;;;;;;13.85;100.00;100777.97;10368740;28;20025;-72
2022/09/08 20:24:21;;;;;;;0.10;0.10;;;;;;;13.89;100.00;100778.44;10368159;28;20026;-72
2022/09/08 20:30:03;;;;;;;0.10;0.10;;;;;;;13.85;100.00;100769.94;10367405;28;20025;-72
2022/09/08 20:35:16;;;;;;;0.10;0.10;;;;;;;13.79;100.00;100787.56;10366588;28;20104;-72
2022/09/08 20:40:39;;;;;;;0.10;0.10;;;;;;;13.81;100.00;100787.38;10364581;28;20069;-72
2022/09/08 20:45:48;;;;;;;0.10;0.10;;;;;;;13.85;100.00;100788.69;10354356;28;20042;-75
2022/09/08 20:51:10;;;;;;;0.03;0.03;;;;;;;13.90;100.00;100793.50;10341063;28;20413;-75
2022/09/08 20:56:11;;;;;;;0.10;0.10;;;;;;;13.82;100.00;100800.59;10367187;28;20444;-75
2022/09/08 21:01:19;;;;;;;0.10;0.10;;;;;;;13.73;100.00;100800.81;10367133;28;20109;-75
2022/09/08 21:06:27;;;;;;;0.10;0.10;;;;;;;13.59;100.00;100800.63;10367350;28;20018;-75
2022/09/08 21:11:34;;;;;;;0.00;0.00;;;;;;;13.48;100.00;100800.22;10343286;28;20034;-75
2022/09/08 21:16:43;;;;;;;0.10;0.10;;;;;;;13.39;100.00;100806.63;10367159;28;20032;-75
2022/09/08 21:21:57;;;;;;;0.10;0.10;;;;;;;13.33;100.00;100800.97;10366569;28;20018;-75
2022/09/08 21:27:14;;;;;;;0.10;0.10;;;;;;;13.30;100.00;100800.50;10349836;28;20033;-75
2022/09/08 21:32:57;;;;;;;0.10;0.10;;;;;;;13.28;100.00;100792.63;10366472;28;20037;-75
2022/09/08 21:38:16;;;;;;;0.10;0.10;;;;;;;13.25;100.00;100797.50;10337453;28;20037;-75
2022/09/08 21:43:20;;;;;;;0.10;0.10;;;;;;;13.19;100.00;100791.00;10344723;28;20032;-75
2022/09/08 21:48:23;;;;;;;0.10;0.10;;;;;;;13.12;100.00;100796.25;10366887;28;20057;-75
2022/09/08 21:53:53;;;;;;;0.10;0.10;;;;;;;13.06;100.00;100796.09;10366111;28;20133;-75
2022/09/08 22:04:11;;;;;;;0.10;0.10;;;;;;;12.95;100.00;100805.34;10321337;28;20082;-74
2022/09/08 22:09:20;;;;;;;0.00;0.00;;;;;;;12.91;100.00;100812.03;10324551;28;20377;-74
2022/09/08 22:14:51;;;;;;;0.10;0.10;;;;;;;12.88;100.00;100805.19;10321510;28;20022;-74
2022/09/08 22:19:56;;;;;;;0.00;0.00;;;;;;;12.85;100.00;100812.75;10327815;28;20014;-73
2022/09/08 22:25:01;;;;;;;0.10;0.10;;;;;;;12.86;100.00;100807.25;10335366;28;20077;-74
2022/09/08 22:30:20;;;;;;;0.10;0.10;;;;;;;12.82;100.00;100813.09;10335368;28;20421;-74
2022/09/08 22:35:44;;;;;;;0.10;0.10;;;;;;;12.80;100.00;100813.28;10334557;28;20018;-73
2022/09/08 22:40:52;;;;;;;0.10;0.10;;;;;;;12.81;100.00;100814.94;10313839;28;20058;-74
2022/09/08 22:46:04;;;;;;;0.10;0.10;;;;;;;12.91;100.00;100812.91;10332765;28;20025;-73
2022/09/08 22:51:11;;;;;;;0.05;0.05;;;;;;;13.02;100.00;100822.34;10333659;28;20057;-73
2022/09/08 22:56:37;;;;;;;0.00;0.00;;;;;;;13.09;100.00;100826.00;10316390;28;20026;-73
2022/09/08 23:01:42;;;;;;;0.10;0.10;;;;;;;13.17;100.00;100827.78;10332872;28;20382;-73
2022/09/08 23:06:42;;;;;;;0.10;0.10;;;;;;;13.23;100.00;100820.91;10333390;28;20026;-74
2022/09/08 23:12:11;;;;;;;0.10;0.10;;;;;;;13.28;100.00;100821.25;10325270;28;21019;-73
2022/09/08 23:17:31;;;;;;;0.10;0.10;;;;;;;13.29;100.00;100802.34;10333447;28;20026;-73
2022/09/08 23:23:03;;;;;;;0.10;0.10;;;;;;;13.32;100.00;100807.34;10332820;28;20029;-74
2022/09/08 23:28:20;;;;;;;0.10;0.10;;;;;;;13.33;100.00;100794.78;10332550;28;20109;-73
2022/09/08 23:33:51;;;;;;;0.10;0.10;;;;;;;13.33;100.00;100808.19;10331153;28;20510;-74
2022/09/08 23:39:13;;;;;;;0.08;0.08;;;;;;;13.32;100.00;100804.66;10314000;28;20185;-73
2022/09/08 23:44:19;;;;;;;0.10;0.10;;;;;;;13.31;100.00;100804.84;10326121;28;20018;-74
2022/09/08 23:49:22;;;;;;;0.10;0.10;;;;;;;13.33;100.00;100809.00;10331870;28;20018;-73
2022/09/08 23:54:26;;;;;;;0.10;0.10;;;;;;;13.38;100.00;100799.59;10313986;28;20058;-73